createdAt,value
2022-12-28T00:01:18.010Z,96.37
2022-12-28T00:03:45.518Z,96.35
2022-12-28T00:06:13.415Z,96.26
2022-12-28T00:08:40.399Z,96.26
2022-12-28T00:11:18.658Z,96.03
2022-12-28T00:13:53.030Z,95.82
2022-12-28T00:16:25.995Z,95.87
2022-12-28T00:18:54.392Z,95.68
2022-12-28T00:21:21.666Z,95.75
2022-12-28T00:23:53.196Z,95.98
2022-12-28T00:26:20.294Z,96.02
2022-12-28T00:28:47.789Z,96.14
2022-12-28T00:31:15.651Z,96.27
2022-12-28T00:33:42.841Z,96.28
2022-12-28T00:36:13.962Z,96.22
2022-12-28T00:38:43.375Z,95.96
2022-12-28T00:41:10.710Z,95.84
2022-12-28T00:43:37.906Z,95.66
2022-12-28T00:46:05.027Z,95.80
2022-12-28T00:48:34.292Z,95.59
2022-12-28T00:51:10.391Z,95.59
2022-12-28T00:53:37.540Z,95.67
2022-12-28T00:56:06.405Z,95.65
2022-12-28T00:58:33.546Z,95.75
2022-12-28T01:01:00.740Z,95.48
2022-12-28T01:03:27.779Z,95.29
2022-12-28T01:05:54.492Z,95.26
2022-12-28T01:08:21.368Z,95.17
2022-12-28T01:10:48.215Z,95.16
2022-12-28T01:13:15.087Z,95.24
2022-12-28T01:15:41.855Z,95.29
2022-12-28T01:18:08.535Z,95.56
2022-12-28T01:20:35.221Z,95.55
2022-12-28T01:23:01.947Z,95.47
2022-12-28T01:25:28.574Z,95.51
2022-12-28T01:27:55.217Z,95.67
2022-12-28T01:30:21.852Z,95.71
2022-12-28T01:32:48.568Z,95.67
2022-12-28T01:35:15.225Z,95.71
2022-12-28T01:37:42.515Z,95.85
2022-12-28T01:40:14.416Z,96.06
2022-12-28T01:42:41.169Z,96.05
2022-12-28T01:45:19.772Z,96.07
2022-12-28T01:47:54.163Z,96.48
2022-12-28T01:50:26.906Z,96.53
2022-12-28T01:52:57.966Z,96.54
2022-12-28T01:55:33.631Z,96.51
2022-12-28T01:58:32.824Z,96.63
2022-12-28T02:00:59.554Z,96.53
2022-12-28T02:03:28.956Z,96.54
2022-12-28T02:05:59.478Z,96.86
2022-12-28T02:08:29.814Z,96.87
2022-12-28T02:11:00.557Z,97.02
2022-12-28T02:13:27.545Z,96.74
2022-12-28T02:16:00.150Z,96.93
2022-12-28T02:18:27.455Z,97.15
2022-12-28T02:21:09.637Z,97.08
2022-12-28T02:24:15.606Z,97.07
2022-12-28T02:27:03.344Z,97.10
2022-12-28T02:29:48.831Z,97.33
2022-12-28T02:32:28.635Z,97.53
2022-12-28T02:34:56.610Z,97.65
2022-12-28T02:37:33.549Z,97.96
2022-12-28T02:40:23.154Z,98.09
2022-12-28T02:42:53.996Z,98.33
2022-12-28T02:45:52.545Z,98.55
2022-12-28T02:48:38.256Z,98.65
2022-12-28T02:51:26.915Z,98.90
2022-12-28T02:54:07.458Z,99.10
2022-12-28T02:57:00.349Z,98.93
2022-12-28T02:59:35.791Z,98.83
2022-12-28T03:02:39.250Z,99.22
2022-12-28T03:05:09.845Z,99.31
2022-12-28T03:08:15.362Z,99.36
2022-12-28T03:10:44.318Z,99.81
2022-12-28T03:13:47.004Z,99.70
2022-12-28T03:20:09.408Z,99.83
2022-12-28T03:23:02.357Z,100.00
2022-12-28T03:25:53.279Z,100.00
2022-12-28T03:28:48.414Z,100.00
2022-12-28T03:31:19.770Z,100.00
2022-12-28T03:34:05.965Z,100.00
2022-12-28T03:37:01.840Z,100.00
2022-12-28T03:39:35.110Z,100.00
2022-12-28T03:42:56.069Z,100.00
2022-12-28T03:45:46.288Z,100.00
2022-12-28T03:48:16.805Z,100.00
2022-12-28T03:50:47.189Z,100.00
2022-12-28T03:53:22.513Z,100.00
2022-12-28T03:55:51.191Z,100.00
2022-12-28T03:58:21.236Z,100.00
2022-12-28T04:00:49.336Z,100.00
2022-12-28T04:03:20.101Z,100.00
2022-12-28T04:05:46.914Z,100.00
2022-12-28T04:08:13.622Z,100.00
2022-12-28T04:10:40.359Z,100.00
2022-12-28T04:13:08.303Z,100.00
2022-12-28T04:16:04.094Z,100.00
2022-12-28T04:18:33.450Z,100.00
2022-12-28T04:21:00.797Z,100.00
2022-12-28T04:23:28.511Z,100.00
2022-12-28T04:26:21.358Z,100.00
2022-12-28T04:29:00.036Z,100.00
2022-12-28T04:31:37.369Z,100.00
2022-12-28T04:34:06.971Z,100.00
2022-12-28T04:36:38.978Z,100.00
2022-12-28T04:39:10.152Z,100.00
2022-12-28T04:41:39.572Z,100.00
2022-12-28T04:44:06.627Z,100.00
2022-12-28T04:46:33.460Z,100.00
2022-12-28T04:49:01.072Z,100.00
2022-12-28T04:51:29.312Z,100.00
2022-12-28T04:53:57.421Z,100.00
2022-12-28T04:56:26.437Z,100.00
2022-12-28T04:58:58.007Z,100.00
2022-12-28T05:01:25.611Z,100.00
2022-12-28T05:03:59.194Z,100.00
2022-12-28T05:06:55.018Z,100.00
2022-12-28T05:09:21.664Z,100.00
2022-12-28T05:11:48.518Z,100.00
2022-12-28T05:14:15.296Z,100.00
2022-12-28T05:16:42.129Z,100.00
2022-12-28T05:19:09.038Z,100.00
2022-12-28T05:21:35.964Z,100.00
2022-12-28T05:24:03.074Z,100.00
2022-12-28T05:26:29.948Z,100.00
2022-12-28T05:28:57.957Z,100.00
2022-12-28T05:31:25.038Z,100.00
2022-12-28T05:33:54.418Z,100.00
2022-12-28T05:36:23.702Z,100.00
2022-12-28T05:38:51.990Z,100.00
2022-12-28T05:41:26.620Z,100.00
2022-12-28T05:43:54.907Z,100.00
2022-12-28T05:46:25.154Z,100.00
2022-12-28T05:48:54.589Z,100.00
2022-12-28T05:51:23.899Z,100.00
2022-12-28T05:53:51.047Z,100.00
2022-12-28T05:56:21.241Z,100.00
2022-12-28T05:59:08.373Z,100.00
2022-12-28T06:01:38.390Z,100.00
2022-12-28T06:04:14.173Z,100.00
2022-12-28T06:06:40.828Z,100.00
2022-12-28T06:09:07.480Z,100.00
2022-12-28T06:11:34.118Z,100.00
2022-12-28T06:14:03.027Z,100.00
2022-12-28T06:16:32.649Z,100.00
2022-12-28T06:19:02.813Z,100.00
2022-12-28T06:21:31.868Z,100.00
2022-12-28T06:24:00.226Z,100.00
2022-12-28T06:26:30.335Z,100.00
2022-12-28T06:28:57.614Z,100.00
2022-12-28T06:31:30.198Z,100.00
2022-12-28T06:33:58.454Z,100.00
2022-12-28T06:36:33.705Z,100.00
2022-12-28T06:39:01.954Z,100.00
2022-12-28T06:41:29.204Z,100.00
2022-12-28T06:43:56.530Z,100.00
2022-12-28T06:46:25.197Z,100.00
2022-12-28T06:48:52.839Z,100.00
2022-12-28T06:51:22.538Z,100.00
2022-12-28T06:53:51.013Z,100.00
2022-12-28T06:56:30.349Z,100.00
2022-12-28T06:59:02.852Z,100.00
2022-12-28T07:01:35.677Z,100.00
2022-12-28T07:04:04.584Z,100.00
2022-12-28T07:06:37.074Z,100.00
2022-12-28T07:09:06.877Z,100.00
2022-12-28T07:11:35.349Z,100.00
2022-12-28T07:14:02.608Z,100.00
2022-12-28T07:18:58.951Z,100.00
2022-12-28T07:21:31.449Z,100.00
2022-12-28T07:24:05.162Z,100.00
2022-12-28T07:26:34.699Z,100.00
2022-12-28T07:29:06.417Z,100.00
2022-12-28T07:31:43.618Z,100.00
2022-12-28T07:34:11.946Z,100.00
2022-12-28T07:36:38.707Z,100.00
2022-12-28T07:39:05.236Z,100.00
2022-12-28T07:41:33.625Z,100.00
2022-12-28T07:44:00.435Z,100.00
2022-12-28T07:46:33.414Z,100.00
2022-12-28T07:49:00.472Z,100.00
2022-12-28T07:51:32.472Z,100.00
2022-12-28T07:53:59.565Z,100.00
2022-12-28T07:56:28.377Z,100.00
2022-12-28T07:58:59.267Z,100.00
2022-12-28T08:01:28.710Z,100.00
2022-12-28T08:03:58.350Z,100.00
2022-12-28T08:06:28.259Z,100.00
2022-12-28T08:08:58.404Z,100.00
2022-12-28T08:11:30.523Z,100.00
2022-12-28T08:14:01.947Z,100.00
2022-12-28T08:16:33.578Z,100.00
2022-12-28T08:19:00.964Z,100.00
2022-12-28T08:21:33.775Z,100.00
2022-12-28T08:24:01.334Z,100.00
2022-12-28T08:26:36.701Z,100.00
2022-12-28T08:29:06.799Z,100.00
2022-12-28T08:31:37.245Z,100.00
2022-12-28T08:34:06.197Z,100.00
2022-12-28T08:36:33.325Z,100.00
2022-12-28T08:39:03.967Z,99.95
2022-12-28T08:41:30.813Z,99.87
2022-12-28T08:43:58.289Z,99.88
2022-12-28T08:46:30.941Z,99.65
2022-12-28T08:49:03.698Z,98.53
2022-12-28T08:51:43.760Z,98.64
2022-12-28T08:54:18.520Z,98.36
2022-12-28T08:56:45.694Z,98.05
2022-12-28T08:59:33.173Z,97.59
2022-12-28T09:01:59.918Z,97.25
2022-12-28T09:04:27.683Z,97.18
2022-12-28T09:06:56.605Z,96.90
2022-12-28T09:09:23.304Z,96.37
2022-12-28T09:11:50.455Z,96.51
2022-12-28T09:14:24.901Z,95.74
2022-12-28T09:16:53.420Z,95.68
2022-12-28T09:19:21.276Z,95.34
2022-12-28T09:21:51.814Z,94.80
2022-12-28T09:24:18.587Z,95.08
2022-12-28T09:26:45.283Z,94.43
2022-12-28T09:29:13.366Z,94.03
2022-12-28T09:31:41.086Z,93.97
2022-12-28T09:36:59.342Z,93.56
2022-12-28T09:39:26.284Z,93.23
2022-12-28T09:42:05.287Z,92.82
2022-12-28T09:45:09.828Z,92.23
2022-12-28T09:47:43.932Z,91.29
2022-12-28T09:50:16.934Z,90.14
2022-12-28T09:52:59.495Z,90.44
2022-12-28T09:55:27.904Z,90.13
2022-12-28T09:57:57.521Z,89.59
2022-12-28T10:00:46.492Z,89.50
2022-12-28T10:03:39.750Z,89.22
2022-12-28T10:06:15.625Z,88.89
2022-12-28T10:08:47.107Z,88.61
2022-12-28T10:11:24.124Z,88.62
2022-12-28T10:13:57.722Z,88.12
2022-12-28T10:16:27.358Z,86.80
2022-12-28T10:18:55.024Z,85.81
2022-12-28T10:21:30.087Z,85.80
2022-12-28T10:26:47.309Z,84.74
2022-12-28T10:29:20.263Z,84.90
2022-12-28T10:32:02.266Z,84.51
2022-12-28T10:34:34.348Z,83.99
2022-12-28T10:37:14.497Z,83.51
2022-12-28T10:39:52.821Z,83.61
2022-12-28T10:42:27.029Z,82.72
2022-12-28T10:45:05.471Z,81.83
2022-12-28T10:47:42.291Z,82.13
2022-12-28T10:50:43.964Z,82.41
2022-12-28T10:53:37.135Z,81.72
2022-12-28T10:56:22.224Z,80.37
2022-12-28T10:58:54.507Z,78.55
2022-12-28T11:01:27.971Z,78.95
2022-12-28T11:03:54.591Z,79.38
2022-12-28T11:06:27.892Z,79.23
2022-12-28T11:09:22.773Z,78.96
2022-12-28T11:11:51.832Z,78.36
2022-12-28T11:14:25.610Z,77.67
2022-12-28T11:16:52.821Z,76.96
2022-12-28T11:19:21.635Z,77.46
2022-12-28T11:21:48.910Z,77.40
2022-12-28T11:24:17.570Z,75.89
2022-12-28T11:26:50.073Z,75.43
2022-12-28T11:29:18.799Z,75.35
2022-12-28T11:31:54.333Z,75.04
2022-12-28T11:34:31.494Z,76.06
2022-12-28T11:37:00.455Z,75.31
2022-12-28T11:39:27.119Z,75.40
2022-12-28T11:44:50.114Z,74.32
2022-12-28T11:47:16.827Z,74.49
2022-12-28T11:49:46.716Z,74.31
2022-12-28T11:52:16.521Z,73.91
2022-12-28T11:54:52.606Z,73.53
2022-12-28T11:57:39.628Z,73.75
2022-12-28T12:00:22.766Z,73.97
2022-12-28T12:02:52.836Z,72.80
2022-12-28T12:05:35.041Z,73.54
2022-12-28T12:08:24.250Z,73.94
2022-12-28T12:11:24.861Z,73.93
2022-12-28T12:13:53.684Z,73.84
2022-12-28T12:16:34.100Z,73.99
2022-12-28T12:19:06.253Z,73.93
2022-12-28T12:21:43.741Z,73.97
2022-12-28T12:24:26.028Z,73.73
2022-12-28T12:26:58.211Z,74.02
2022-12-28T12:29:39.253Z,74.32
2022-12-28T12:32:14.916Z,74.06
2022-12-28T12:34:45.905Z,74.40
2022-12-28T12:37:18.693Z,73.96
2022-12-28T12:40:23.052Z,74.15
2022-12-28T12:43:22.036Z,74.13
2022-12-28T12:46:13.318Z,74.38
2022-12-28T12:49:09.923Z,74.45
2022-12-28T12:51:45.453Z,74.34
2022-12-28T12:54:30.428Z,74.43
2022-12-28T12:57:05.340Z,73.90
2022-12-28T13:00:01.238Z,74.57
2022-12-28T13:03:05.742Z,74.43
2022-12-28T13:05:32.936Z,73.40
2022-12-28T13:08:00.807Z,73.65
2022-12-28T13:10:43.339Z,73.74
2022-12-28T13:13:20.173Z,73.39
2022-12-28T13:15:47.632Z,73.56
2022-12-28T13:18:44.571Z,73.49
2022-12-28T13:21:12.281Z,73.29
2022-12-28T13:23:44.575Z,73.15
2022-12-28T13:26:13.794Z,73.77
2022-12-28T13:28:55.190Z,73.80
2022-12-28T13:31:28.111Z,72.57
2022-12-28T13:34:00.854Z,72.59
2022-12-28T13:36:27.725Z,72.84
2022-12-28T13:39:14.353Z,72.93
2022-12-28T13:42:10.961Z,72.73
2022-12-28T13:44:40.237Z,73.11
2022-12-28T13:47:31.808Z,73.19
2022-12-28T13:50:23.517Z,73.70
2022-12-28T13:52:57.600Z,73.37
2022-12-28T13:55:30.233Z,73.51
2022-12-28T13:58:02.569Z,73.75
2022-12-28T14:00:31.113Z,74.07
2022-12-28T14:02:58.403Z,74.47
2022-12-28T14:05:30.133Z,74.57
2022-12-28T14:07:58.789Z,74.79
2022-12-28T14:10:27.144Z,74.66
2022-12-28T14:12:55.483Z,74.93
2022-12-28T14:15:23.162Z,75.50
2022-12-28T14:17:52.206Z,75.83
2022-12-28T14:20:18.920Z,75.96
2022-12-28T14:22:47.506Z,76.12
2022-12-28T14:25:18.961Z,76.37
2022-12-28T14:28:03.233Z,76.57
2022-12-28T14:30:33.938Z,76.55
2022-12-28T14:33:07.104Z,76.92
2022-12-28T14:35:47.323Z,77.14
2022-12-28T14:38:23.342Z,77.19
2022-12-28T14:40:59.899Z,77.21
2022-12-28T14:43:36.267Z,77.51
2022-12-28T14:46:39.833Z,77.68
2022-12-28T14:49:28.375Z,77.85
2022-12-28T14:52:07.423Z,78.18
2022-12-28T14:54:45.097Z,78.31
2022-12-28T14:57:26.909Z,78.51
2022-12-28T15:00:05.282Z,78.43
2022-12-28T15:02:35.226Z,78.62
2022-12-28T15:05:02.951Z,78.83
2022-12-28T15:07:32.810Z,78.81
2022-12-28T15:10:00.422Z,78.97
2022-12-28T15:12:27.104Z,79.03
2022-12-28T15:14:53.781Z,79.32
2022-12-28T15:17:20.375Z,79.62
2022-12-28T15:19:49.264Z,79.77
2022-12-28T15:22:15.911Z,79.96
2022-12-28T15:24:45.844Z,80.32
2022-12-28T15:27:12.482Z,80.42
2022-12-28T15:30:04.256Z,80.52
2022-12-28T15:32:26.420Z,80.70
2022-12-28T15:34:53.005Z,81.13
2022-12-28T15:37:19.606Z,81.63
2022-12-28T15:39:47.482Z,81.61
2022-12-28T15:42:14.166Z,81.60
2022-12-28T15:44:40.775Z,81.84
2022-12-28T15:47:07.515Z,81.94
2022-12-28T15:49:34.228Z,81.96
2022-12-28T15:52:00.743Z,82.21
2022-12-28T15:54:27.275Z,82.47
2022-12-28T15:56:54.999Z,82.90
2022-12-28T15:59:21.834Z,83.06
2022-12-28T16:01:48.831Z,83.23
2022-12-28T16:04:17.020Z,83.43
2022-12-28T16:06:45.178Z,83.43
2022-12-28T16:09:13.060Z,83.39
2022-12-28T16:11:40.907Z,83.23
2022-12-28T16:14:13.576Z,83.38
2022-12-28T16:16:41.742Z,83.37
2022-12-28T16:19:11.455Z,83.25
2022-12-28T16:21:38.106Z,83.53
2022-12-28T16:24:04.896Z,83.77
2022-12-28T16:26:31.717Z,83.80
2022-12-28T16:28:59.440Z,83.79
2022-12-28T16:31:27.410Z,84.24
2022-12-28T16:33:57.096Z,84.05
2022-12-28T16:36:24.632Z,84.20
2022-12-28T16:38:52.255Z,84.54
2022-12-28T16:41:19.812Z,84.72
2022-12-28T16:43:47.636Z,84.54
2022-12-28T16:46:14.578Z,84.92
2022-12-28T16:48:41.345Z,85.06
2022-12-28T16:51:08.140Z,85.13
2022-12-28T16:53:36.662Z,85.22
2022-12-28T16:56:05.424Z,85.46
2022-12-28T16:58:32.608Z,85.62
2022-12-28T17:01:05.575Z,85.63
2022-12-28T17:03:33.120Z,86.07
2022-12-28T17:06:00.383Z,85.96
2022-12-28T17:08:27.112Z,86.28
2022-12-28T17:10:53.893Z,86.52
2022-12-28T17:13:20.456Z,86.39
2022-12-28T17:15:47.136Z,86.51
2022-12-28T17:18:14.502Z,86.81
2022-12-28T17:20:45.068Z,87.04
2022-12-28T17:23:12.505Z,87.59
2022-12-28T17:25:39.089Z,87.61
2022-12-28T17:28:05.834Z,87.75
2022-12-28T17:30:33.914Z,88.08
2022-12-28T17:33:01.589Z,88.00
2022-12-28T17:35:28.186Z,88.01
2022-12-28T17:37:57.592Z,88.21
2022-12-28T17:40:26.453Z,88.47
2022-12-28T17:42:53.107Z,88.36
2022-12-28T17:45:19.823Z,88.44
2022-12-28T17:47:46.497Z,88.72
2022-12-28T17:50:13.219Z,89.10
2022-12-28T17:52:41.248Z,89.08
2022-12-28T17:55:07.949Z,89.32
2022-12-28T17:57:38.662Z,89.45
2022-12-28T18:00:06.068Z,89.35
2022-12-28T18:02:39.200Z,89.32
2022-12-28T18:05:06.596Z,89.70
2022-12-28T18:07:33.762Z,90.75
2022-12-28T18:10:02.955Z,90.64
2022-12-28T18:12:29.662Z,90.45
2022-12-28T18:14:56.282Z,90.39
2022-12-28T18:17:22.999Z,90.58
2022-12-28T18:19:52.875Z,90.96
2022-12-28T18:22:22.333Z,91.17
2022-12-28T18:24:49.997Z,91.43
2022-12-28T18:27:16.903Z,91.06
2022-12-28T18:29:44.721Z,91.27
2022-12-28T18:32:14.022Z,91.53
2022-12-28T18:34:40.855Z,91.32
2022-12-28T18:37:07.564Z,91.56
2022-12-28T18:39:34.320Z,92.07
2022-12-28T18:42:02.737Z,92.53
2022-12-28T18:44:29.505Z,92.70
2022-12-28T18:46:56.151Z,92.49
2022-12-28T18:49:23.888Z,92.32
2022-12-28T18:51:50.823Z,92.17
2022-12-28T18:54:18.960Z,92.35
2022-12-28T18:56:46.911Z,92.32
2022-12-28T18:59:14.515Z,92.44
2022-12-28T19:04:32.503Z,92.70
2022-12-28T19:07:01.843Z,92.87
2022-12-28T19:09:28.962Z,93.51
2022-12-28T19:11:55.831Z,93.72
2022-12-28T19:14:25.959Z,94.19
2022-12-28T19:16:53.084Z,94.35
2022-12-28T19:19:20.472Z,94.25
2022-12-28T19:21:47.295Z,94.17
2022-12-28T19:24:18.802Z,94.17
2022-12-28T19:26:46.471Z,94.38
2022-12-28T19:29:22.126Z,94.46
2022-12-28T19:32:00.446Z,94.29
2022-12-28T19:34:35.631Z,94.19
2022-12-28T19:37:20.803Z,94.29
2022-12-28T19:39:57.896Z,94.36
2022-12-28T19:42:46.465Z,94.45
2022-12-28T19:45:13.383Z,94.52
2022-12-28T19:47:41.354Z,94.55
2022-12-28T19:50:14.128Z,94.66
2022-12-28T19:52:43.334Z,94.92
2022-12-28T19:55:12.466Z,95.16
2022-12-28T19:57:42.431Z,95.17
2022-12-28T20:00:12.662Z,95.50
2022-12-28T20:02:39.567Z,95.58
2022-12-28T20:05:07.178Z,95.71
2022-12-28T20:07:38.835Z,95.53
2022-12-28T20:10:21.020Z,95.42
2022-12-28T20:13:11.398Z,95.42
2022-12-28T20:19:07.873Z,95.05
2022-12-28T20:21:48.896Z,95.17
2022-12-28T20:23:12.427Z,95.26
2022-12-28T20:24:17.052Z,95.21
2022-12-28T20:26:43.888Z,95.18
2022-12-28T20:29:15.448Z,95.05
2022-12-28T20:31:43.967Z,95.37
2022-12-28T20:34:34.254Z,95.82
2022-12-28T20:37:04.150Z,95.65
2022-12-28T20:39:32.385Z,95.73
2022-12-28T20:42:18.104Z,95.70
2022-12-28T20:44:45.240Z,95.63
2022-12-28T20:47:12.163Z,95.94
2022-12-28T20:50:04.163Z,95.94
2022-12-28T20:52:32.383Z,96.00
2022-12-28T20:55:05.158Z,96.01
2022-12-28T20:57:31.937Z,96.05
2022-12-28T20:59:59.101Z,95.97
2022-12-28T21:02:26.122Z,96.07
2022-12-28T21:04:58.404Z,96.20
2022-12-28T21:07:30.561Z,95.89
2022-12-28T21:10:00.999Z,96.02
2022-12-28T21:12:30.277Z,95.83
2022-12-28T21:15:06.075Z,96.11
2022-12-28T21:17:34.978Z,96.09
2022-12-28T21:20:03.551Z,95.99
2022-12-28T21:22:30.742Z,96.15
2022-12-28T21:25:00.139Z,96.10
2022-12-28T21:27:36.637Z,95.92
2022-12-28T21:30:06.681Z,95.76
2022-12-28T21:32:36.384Z,95.79
2022-12-28T21:35:03.933Z,95.61
2022-12-28T21:37:33.783Z,95.57
2022-12-28T21:40:09.619Z,95.67
2022-12-28T21:42:36.759Z,95.53
2022-12-28T21:45:05.070Z,95.39
2022-12-28T21:47:36.287Z,95.31
2022-12-28T21:50:07.113Z,95.41
2022-12-28T21:52:36.522Z,95.31
2022-12-28T21:55:24.295Z,95.38
2022-12-28T21:57:53.033Z,95.32
2022-12-28T22:00:41.280Z,95.27
2022-12-28T22:03:26.934Z,95.41
2022-12-28T22:06:02.101Z,95.53
2022-12-28T22:08:49.766Z,95.48
2022-12-28T22:11:39.639Z,95.58
2022-12-28T22:14:09.286Z,95.54
2022-12-28T22:16:50.255Z,95.50
2022-12-28T22:19:21.644Z,95.62
2022-12-28T22:21:54.939Z,95.88
2022-12-28T22:25:05.133Z,95.75
2022-12-28T22:27:41.124Z,95.64
2022-12-28T22:30:10.574Z,95.91
2022-12-28T22:32:47.848Z,95.74
2022-12-28T22:35:21.525Z,95.84
2022-12-28T22:37:52.867Z,95.70
2022-12-28T22:40:21.181Z,95.75
2022-12-28T22:42:50.482Z,95.56
2022-12-28T22:45:20.040Z,95.68
2022-12-28T22:47:58.895Z,95.71
2022-12-28T22:50:28.662Z,96.12
2022-12-28T22:52:56.845Z,95.80
2022-12-28T22:55:23.793Z,95.58
2022-12-28T22:57:50.836Z,95.73
2022-12-28T23:00:20.004Z,95.91
2022-12-28T23:02:51.340Z,95.76
2022-12-28T23:05:23.950Z,95.71
2022-12-28T23:07:51.128Z,95.82
2022-12-28T23:10:20.270Z,96.13
2022-12-28T23:12:49.722Z,95.89
2022-12-28T23:15:20.338Z,95.80
2022-12-28T23:17:48.183Z,95.79
2022-12-28T23:20:36.474Z,95.79
2022-12-28T23:23:21.903Z,95.80
2022-12-28T23:26:07.960Z,95.74
2022-12-28T23:28:42.624Z,95.86
2022-12-28T23:31:17.533Z,95.68
2022-12-28T23:33:57.281Z,95.62
2022-12-28T23:36:35.339Z,95.68
2022-12-28T23:39:04.015Z,95.58
2022-12-28T23:41:51.152Z,95.26
2022-12-28T23:44:34.754Z,95.37
2022-12-28T23:47:11.485Z,95.50
2022-12-28T23:52:44.938Z,95.49
2022-12-28T23:55:11.803Z,95.48
2022-12-28T23:57:38.850Z,95.37
